sensor_id;sensor_type;location;lat;lon;timestamp;P1;durP1;ratioP1;P2;durP2;ratioP2
26486;SDS011;14425;56.136;40.360;2023-04-29T00:00:45;8.55;;;7.75;;
26486;SDS011;14425;56.136;40.360;2023-04-29T00:03:11;10.48;;;8.57;;
26486;SDS011;14425;56.136;40.360;2023-04-29T00:05:36;8.93;;;7.53;;
26486;SDS011;14425;56.136;40.360;2023-04-29T00:08:02;8.05;;;7.25;;
26486;SDS011;14425;56.136;40.360;2023-04-29T00:10:28;8.63;;;7.68;;
26486;SDS011;14425;56.136;40.360;2023-04-29T00:12:53;9.32;;;8.23;;
26486;SDS011;14425;56.136;40.360;2023-04-29T00:15:19;10.55;;;8.77;;
26486;SDS011;14425;56.136;40.360;2023-04-29T00:17:44;9.27;;;8.20;;
26486;SDS011;14425;56.136;40.360;2023-04-29T00:20:10;10.27;;;9.07;;
26486;SDS011;14425;56.136;40.360;2023-04-29T00:22:36;9.75;;;8.75;;
26486;SDS011;14425;56.136;40.360;2023-04-29T00:25:02;11.43;;;8.88;;
26486;SDS011;14425;56.136;40.360;2023-04-29T00:27:29;8.68;;;7.88;;
26486;SDS011;14425;56.136;40.360;2023-04-29T00:29:54;11.20;;;9.40;;
26486;SDS011;14425;56.136;40.360;2023-04-29T00:32:21;9.48;;;8.48;;
26486;SDS011;14425;56.136;40.360;2023-04-29T00:34:47;7.78;;;5.95;;
26486;SDS011;14425;56.136;40.360;2023-04-29T00:37:12;6.00;;;5.40;;
26486;SDS011;14425;56.136;40.360;2023-04-29T00:39:38;7.22;;;6.53;;
26486;SDS011;14425;56.136;40.360;2023-04-29T00:42:03;6.95;;;6.28;;
26486;SDS011;14425;56.136;40.360;2023-04-29T00:44:29;5.60;;;5.10;;
26486;SDS011;14425;56.136;40.360;2023-04-29T00:46:54;4.50;;;4.10;;
26486;SDS011;14425;56.136;40.360;2023-04-29T00:49:20;3.60;;;3.30;;
26486;SDS011;14425;56.136;40.360;2023-04-29T00:51:45;2.90;;;2.60;;
26486;SDS011;14425;56.136;40.360;2023-04-29T00:54:12;3.85;;;3.53;;
26486;SDS011;14425;56.136;40.360;2023-04-29T00:56:38;3.13;;;2.67;;
26486;SDS011;14425;56.136;40.360;2023-04-29T00:59:06;2.72;;;1.77;;
26486;SDS011;14425;56.136;40.360;2023-04-29T01:01:33;3.13;;;2.88;;
26486;SDS011;14425;56.136;40.360;2023-04-29T01:03:59;3.05;;;2.40;;
26486;SDS011;14425;56.136;40.360;2023-04-29T01:12:03;2.42;;;2.30;;
26486;SDS011;14425;56.136;40.360;2023-04-29T01:14:35;3.33;;;1.30;;
26486;SDS011;14425;56.136;40.360;2023-04-29T01:17:10;1.60;;;1.38;;
26486;SDS011;14425;56.136;40.360;2023-04-29T01:19:53;1.73;;;1.63;;
26486;SDS011;14425;56.136;40.360;2023-04-29T01:22:21;1.17;;;1.02;;
26486;SDS011;14425;56.136;40.360;2023-04-29T01:24:47;0.75;;;0.75;;
26486;SDS011;14425;56.136;40.360;2023-04-29T01:33:05;1.55;;;0.80;;
26486;SDS011;14425;56.136;40.360;2023-04-29T01:41:42;0.98;;;0.80;;
26486;SDS011;14425;56.136;40.360;2023-04-29T01:44:12;0.98;;;0.90;;
26486;SDS011;14425;56.136;40.360;2023-04-29T01:46:44;0.73;;;0.73;;
26486;SDS011;14425;56.136;40.360;2023-04-29T01:49:13;0.68;;;0.65;;
26486;SDS011;14425;56.136;40.360;2023-04-29T01:51:39;0.70;;;0.70;;
26486;SDS011;14425;56.136;40.360;2023-04-29T01:54:04;0.90;;;0.70;;
26486;SDS011;14425;56.136;40.360;2023-04-29T01:56:30;1.83;;;0.80;;
26486;SDS011;14425;56.136;40.360;2023-04-29T01:58:56;0.82;;;0.60;;
26486;SDS011;14425;56.136;40.360;2023-04-29T02:01:21;0.55;;;0.55;;
26486;SDS011;14425;56.136;40.360;2023-04-29T02:03:47;0.50;;;0.50;;
26486;SDS011;14425;56.136;40.360;2023-04-29T02:06:12;0.30;;;0.30;;
26486;SDS011;14425;56.136;40.360;2023-04-29T02:08:38;0.65;;;0.60;;
26486;SDS011;14425;56.136;40.360;2023-04-29T02:11:03;0.40;;;0.40;;
26486;SDS011;14425;56.136;40.360;2023-04-29T02:13:29;0.70;;;0.70;;
26486;SDS011;14425;56.136;40.360;2023-04-29T02:15:54;0.88;;;0.50;;
26486;SDS011;14425;56.136;40.360;2023-04-29T02:18:20;0.63;;;0.60;;
26486;SDS011;14425;56.136;40.360;2023-04-29T02:20:45;0.65;;;0.50;;
26486;SDS011;14425;56.136;40.360;2023-04-29T02:23:11;0.30;;;0.30;;
26486;SDS011;14425;56.136;40.360;2023-04-29T02:25:36;0.52;;;0.52;;
26486;SDS011;14425;56.136;40.360;2023-04-29T02:28:02;0.32;;;0.30;;
26486;SDS011;14425;56.136;40.360;2023-04-29T02:30:28;1.88;;;0.70;;
26486;SDS011;14425;56.136;40.360;2023-04-29T02:32:54;0.50;;;0.50;;
26486;SDS011;14425;56.136;40.360;2023-04-29T02:35:19;0.40;;;0.40;;
26486;SDS011;14425;56.136;40.360;2023-04-29T02:37:45;0.40;;;0.40;;
26486;SDS011;14425;56.136;40.360;2023-04-29T02:40:11;0.95;;;0.55;;
26486;SDS011;14425;56.136;40.360;2023-04-29T02:42:37;0.90;;;0.30;;
26486;SDS011;14425;56.136;40.360;2023-04-29T02:45:02;0.40;;;0.40;;
26486;SDS011;14425;56.136;40.360;2023-04-29T02:47:30;1.48;;;0.57;;
26486;SDS011;14425;56.136;40.360;2023-04-29T02:49:56;0.65;;;0.52;;
26486;SDS011;14425;56.136;40.360;2023-04-29T02:52:22;0.50;;;0.30;;
26486;SDS011;14425;56.136;40.360;2023-04-29T02:54:47;0.63;;;0.55;;
26486;SDS011;14425;56.136;40.360;2023-04-29T02:57:13;0.40;;;0.38;;
26486;SDS011;14425;56.136;40.360;2023-04-29T02:59:39;0.35;;;0.35;;
26486;SDS011;14425;56.136;40.360;2023-04-29T03:02:04;0.77;;;0.77;;
26486;SDS011;14425;56.136;40.360;2023-04-29T03:04:30;0.38;;;0.38;;
26486;SDS011;14425;56.136;40.360;2023-04-29T03:06:55;0.30;;;0.30;;
26486;SDS011;14425;56.136;40.360;2023-04-29T03:09:21;0.35;;;0.35;;
26486;SDS011;14425;56.136;40.360;2023-04-29T03:11:48;0.50;;;0.50;;
26486;SDS011;14425;56.136;40.360;2023-04-29T03:14:13;0.40;;;0.40;;
26486;SDS011;14425;56.136;40.360;2023-04-29T03:16:40;0.50;;;0.43;;
26486;SDS011;14425;56.136;40.360;2023-04-29T03:19:05;0.50;;;0.40;;
26486;SDS011;14425;56.136;40.360;2023-04-29T03:21:31;0.40;;;0.32;;
26486;SDS011;14425;56.136;40.360;2023-04-29T03:23:57;0.40;;;0.30;;
26486;SDS011;14425;56.136;40.360;2023-04-29T03:26:22;0.20;;;0.17;;
26486;SDS011;14425;56.136;40.360;2023-04-29T03:28:49;0.40;;;0.40;;
26486;SDS011;14425;56.136;40.360;2023-04-29T03:31:15;0.50;;;0.30;;
26486;SDS011;14425;56.136;40.360;2023-04-29T03:33:41;0.35;;;0.20;;
26486;SDS011;14425;56.136;40.360;2023-04-29T03:36:07;0.80;;;0.32;;
26486;SDS011;14425;56.136;40.360;2023-04-29T03:38:33;0.50;;;0.20;;
26486;SDS011;14425;56.136;40.360;2023-04-29T03:40:58;0.20;;;0.20;;
26486;SDS011;14425;56.136;40.360;2023-04-29T03:43:24;0.10;;;0.10;;
26486;SDS011;14425;56.136;40.360;2023-04-29T03:45:50;0.20;;;0.20;;
26486;SDS011;14425;56.136;40.360;2023-04-29T03:48:16;0.43;;;0.05;;
26486;SDS011;14425;56.136;40.360;2023-04-29T03:50:41;0.20;;;0.20;;
26486;SDS011;14425;56.136;40.360;2023-04-29T03:53:07;0.10;;;0.10;;
26486;SDS011;14425;56.136;40.360;2023-04-29T03:55:33;0.10;;;0.10;;
26486;SDS011;14425;56.136;40.360;2023-04-29T03:57:59;0.10;;;0.10;;
26486;SDS011;14425;56.136;40.360;2023-04-29T04:00:24;0.05;;;0.00;;
26486;SDS011;14425;56.136;40.360;2023-04-29T04:02:50;0.40;;;0.08;;
26486;SDS011;14425;56.136;40.360;2023-04-29T04:05:16;0.10;;;0.10;;
26486;SDS011;14425;56.136;40.360;2023-04-29T04:07:45;0.15;;;0.10;;
26486;SDS011;14425;56.136;40.360;2023-04-29T04:10:11;0.63;;;0.00;;
26486;SDS011;14425;56.136;40.360;2023-04-29T04:12:36;0.10;;;0.10;;
26486;SDS011;14425;56.136;40.360;2023-04-29T04:15:02;0.35;;;0.10;;
26486;SDS011;14425;56.136;40.360;2023-04-29T04:17:30;1.02;;;0.10;;
26486;SDS011;14425;56.136;40.360;2023-04-29T04:19:55;0.05;;;0.05;;
26486;SDS011;14425;56.136;40.360;2023-04-29T04:22:21;0.22;;;0.17;;
26486;SDS011;14425;56.136;40.360;2023-04-29T04:24:47;0.55;;;0.10;;
26486;SDS011;14425;56.136;40.360;2023-04-29T04:27:12;0.03;;;0.03;;
26486;SDS011;14425;56.136;40.360;2023-04-29T04:29:38;0.10;;;0.08;;
26486;SDS011;14425;56.136;40.360;2023-04-29T04:32:04;0.52;;;0.00;;
26486;SDS011;14425;56.136;40.360;2023-04-29T04:34:29;0.10;;;0.10;;
26486;SDS011;14425;56.136;40.360;2023-04-29T04:36:55;1.05;;;0.95;;
26486;SDS011;14425;56.136;40.360;2023-04-29T04:39:21;0.30;;;0.30;;
26486;SDS011;14425;56.136;40.360;2023-04-29T04:41:46;0.35;;;0.30;;
26486;SDS011;14425;56.136;40.360;2023-04-29T04:44:12;0.70;;;0.10;;
26486;SDS011;14425;56.136;40.360;2023-04-29T04:46:38;1.25;;;0.50;;
26486;SDS011;14425;56.136;40.360;2023-04-29T04:49:04;0.28;;;0.20;;
26486;SDS011;14425;56.136;40.360;2023-04-29T04:51:30;0.10;;;0.10;;
26486;SDS011;14425;56.136;40.360;2023-04-29T04:53:55;0.65;;;0.43;;
26486;SDS011;14425;56.136;40.360;2023-04-29T04:56:21;0.08;;;0.08;;
26486;SDS011;14425;56.136;40.360;2023-04-29T04:58:47;0.25;;;0.17;;
26486;SDS011;14425;56.136;40.360;2023-04-29T05:01:12;0.20;;;0.20;;
26486;SDS011;14425;56.136;40.360;2023-04-29T05:03:38;1.13;;;0.20;;
26486;SDS011;14425;56.136;40.360;2023-04-29T05:06:04;0.60;;;0.20;;
26486;SDS011;14425;56.136;40.360;2023-04-29T05:08:29;0.20;;;0.10;;
26486;SDS011;14425;56.136;40.360;2023-04-29T05:10:55;0.47;;;0.10;;
26486;SDS011;14425;56.136;40.360;2023-04-29T05:13:21;1.40;;;0.30;;
26486;SDS011;14425;56.136;40.360;2023-04-29T05:15:47;0.35;;;0.13;;
26486;SDS011;14425;56.136;40.360;2023-04-29T05:18:13;0.57;;;0.10;;
26486;SDS011;14425;56.136;40.360;2023-04-29T05:20:38;0.50;;;0.13;;
26486;SDS011;14425;56.136;40.360;2023-04-29T05:23:04;0.20;;;0.10;;
26486;SDS011;14425;56.136;40.360;2023-04-29T05:25:30;1.17;;;0.13;;
26486;SDS011;14425;56.136;40.360;2023-04-29T05:27:55;0.43;;;0.10;;
26486;SDS011;14425;56.136;40.360;2023-04-29T05:30:21;0.10;;;0.10;;
26486;SDS011;14425;56.136;40.360;2023-04-29T05:32:47;4.05;;;0.28;;
26486;SDS011;14425;56.136;40.360;2023-04-29T05:35:15;1.25;;;0.17;;
26486;SDS011;14425;56.136;40.360;2023-04-29T05:37:41;0.20;;;0.20;;
26486;SDS011;14425;56.136;40.360;2023-04-29T05:40:07;0.28;;;0.28;;
26486;SDS011;14425;56.136;40.360;2023-04-29T05:42:33;0.10;;;0.10;;
26486;SDS011;14425;56.136;40.360;2023-04-29T05:44:59;0.30;;;0.30;;
26486;SDS011;14425;56.136;40.360;2023-04-29T05:47:25;1.77;;;0.15;;
26486;SDS011;14425;56.136;40.360;2023-04-29T05:49:50;1.30;;;0.10;;
26486;SDS011;14425;56.136;40.360;2023-04-29T05:52:16;4.85;;;0.20;;
26486;SDS011;14425;56.136;40.360;2023-04-29T05:54:42;0.15;;;0.15;;
26486;SDS011;14425;56.136;40.360;2023-04-29T05:57:07;0.20;;;0.10;;
26486;SDS011;14425;56.136;40.360;2023-04-29T05:59:33;0.20;;;0.20;;
26486;SDS011;14425;56.136;40.360;2023-04-29T06:01:59;1.50;;;0.50;;
26486;SDS011;14425;56.136;40.360;2023-04-29T06:04:25;1.17;;;0.40;;
26486;SDS011;14425;56.136;40.360;2023-04-29T06:06:51;0.52;;;0.30;;
26486;SDS011;14425;56.136;40.360;2023-04-29T06:09:20;0.30;;;0.30;;
26486;SDS011;14425;56.136;40.360;2023-04-29T06:11:46;0.45;;;0.20;;
26486;SDS011;14425;56.136;40.360;2023-04-29T06:14:12;0.20;;;0.20;;
26486;SDS011;14425;56.136;40.360;2023-04-29T06:16:38;1.17;;;0.10;;
26486;SDS011;14425;56.136;40.360;2023-04-29T06:19:04;0.20;;;0.13;;
26486;SDS011;14425;56.136;40.360;2023-04-29T06:21:30;0.52;;;0.20;;
26486;SDS011;14425;56.136;40.360;2023-04-29T06:23:56;0.17;;;0.17;;
26486;SDS011;14425;56.136;40.360;2023-04-29T06:26:22;0.10;;;0.10;;
26486;SDS011;14425;56.136;40.360;2023-04-29T06:28:47;0.32;;;0.20;;
26486;SDS011;14425;56.136;40.360;2023-04-29T06:31:14;0.10;;;0.10;;
26486;SDS011;14425;56.136;40.360;2023-04-29T06:33:39;0.52;;;0.30;;
26486;SDS011;14425;56.136;40.360;2023-04-29T06:36:05;1.40;;;0.30;;
26486;SDS011;14425;56.136;40.360;2023-04-29T06:38:31;0.13;;;0.13;;
26486;SDS011;14425;56.136;40.360;2023-04-29T06:40:56;0.35;;;0.20;;
26486;SDS011;14425;56.136;40.360;2023-04-29T06:43:25;0.20;;;0.20;;
26486;SDS011;14425;56.136;40.360;2023-04-29T06:45:51;0.80;;;0.20;;
26486;SDS011;14425;56.136;40.360;2023-04-29T06:48:17;1.35;;;0.10;;
26486;SDS011;14425;56.136;40.360;2023-04-29T06:50:53;0.20;;;0.10;;
26486;SDS011;14425;56.136;40.360;2023-04-29T06:53:20;0.70;;;0.10;;
26486;SDS011;14425;56.136;40.360;2023-04-29T06:55:47;0.73;;;0.32;;
26486;SDS011;14425;56.136;40.360;2023-04-29T06:58:13;0.43;;;0.10;;
26486;SDS011;14425;56.136;40.360;2023-04-29T07:00:42;1.85;;;0.13;;
26486;SDS011;14425;56.136;40.360;2023-04-29T07:03:09;0.35;;;0.10;;
26486;SDS011;14425;56.136;40.360;2023-04-29T07:05:35;0.40;;;0.20;;
26486;SDS011;14425;56.136;40.360;2023-04-29T07:08:03;1.45;;;0.10;;
26486;SDS011;14425;56.136;40.360;2023-04-29T07:10:30;0.20;;;0.20;;
26486;SDS011;14425;56.136;40.360;2023-04-29T07:12:55;0.88;;;0.10;;
26486;SDS011;14425;56.136;40.360;2023-04-29T07:15:21;0.35;;;0.20;;
26486;SDS011;14425;56.136;40.360;2023-04-29T07:17:47;0.60;;;0.52;;
26486;SDS011;14425;56.136;40.360;2023-04-29T07:20:13;0.75;;;0.10;;
26486;SDS011;14425;56.136;40.360;2023-04-29T07:22:39;0.98;;;0.20;;
26486;SDS011;14425;56.136;40.360;2023-04-29T07:25:05;0.20;;;0.15;;
26486;SDS011;14425;56.136;40.360;2023-04-29T07:27:33;0.75;;;0.40;;
26486;SDS011;14425;56.136;40.360;2023-04-29T07:30:00;0.28;;;0.20;;
26486;SDS011;14425;56.136;40.360;2023-04-29T07:32:26;4.82;;;2.22;;
26486;SDS011;14425;56.136;40.360;2023-04-29T07:34:52;4.05;;;2.47;;
26486;SDS011;14425;56.136;40.360;2023-04-29T07:37:18;2.67;;;2.10;;
26486;SDS011;14425;56.136;40.360;2023-04-29T07:39:43;1.83;;;1.30;;
26486;SDS011;14425;56.136;40.360;2023-04-29T07:42:10;2.03;;;1.83;;
26486;SDS011;14425;56.136;40.360;2023-04-29T07:44:36;0.50;;;0.50;;
26486;SDS011;14425;56.136;40.360;2023-04-29T07:47:01;1.80;;;1.00;;
26486;SDS011;14425;56.136;40.360;2023-04-29T07:49:27;0.40;;;0.35;;
26486;SDS011;14425;56.136;40.360;2023-04-29T07:51:53;0.32;;;0.30;;
26486;SDS011;14425;56.136;40.360;2023-04-29T07:54:19;0.98;;;0.60;;
26486;SDS011;14425;56.136;40.360;2023-04-29T07:56:45;1.23;;;0.88;;
26486;SDS011;14425;56.136;40.360;2023-04-29T07:59:10;1.30;;;0.73;;
26486;SDS011;14425;56.136;40.360;2023-04-29T08:01:36;0.68;;;0.63;;
26486;SDS011;14425;56.136;40.360;2023-04-29T08:04:02;0.68;;;0.47;;
26486;SDS011;14425;56.136;40.360;2023-04-29T08:06:28;0.52;;;0.50;;
26486;SDS011;14425;56.136;40.360;2023-04-29T08:08:54;0.70;;;0.20;;
26486;SDS011;14425;56.136;40.360;2023-04-29T08:11:21;1.08;;;0.28;;
26486;SDS011;14425;56.136;40.360;2023-04-29T08:13:48;0.15;;;0.10;;
26486;SDS011;14425;56.136;40.360;2023-04-29T08:16:14;0.40;;;0.10;;
26486;SDS011;14425;56.136;40.360;2023-04-29T08:18:40;0.10;;;0.10;;
26486;SDS011;14425;56.136;40.360;2023-04-29T08:21:07;0.57;;;0.05;;
26486;SDS011;14425;56.136;40.360;2023-04-29T08:23:33;0.10;;;0.10;;
26486;SDS011;14425;56.136;40.360;2023-04-29T08:25:59;0.40;;;0.40;;
26486;SDS011;14425;56.136;40.360;2023-04-29T08:28:25;0.30;;;0.22;;
26486;SDS011;14425;56.136;40.360;2023-04-29T08:30:51;1.00;;;0.40;;
26486;SDS011;14425;56.136;40.360;2023-04-29T08:33:17;0.82;;;0.20;;
26486;SDS011;14425;56.136;40.360;2023-04-29T08:35:43;1.50;;;0.13;;
26486;SDS011;14425;56.136;40.360;2023-04-29T08:38:09;0.40;;;0.10;;
26486;SDS011;14425;56.136;40.360;2023-04-29T08:40:35;0.10;;;0.10;;
26486;SDS011;14425;56.136;40.360;2023-04-29T08:43:14;0.73;;;0.20;;
26486;SDS011;14425;56.136;40.360;2023-04-29T08:45:41;1.40;;;0.20;;
26486;SDS011;14425;56.136;40.360;2023-04-29T08:48:07;0.20;;;0.20;;
26486;SDS011;14425;56.136;40.360;2023-04-29T08:50:37;0.20;;;0.10;;
26486;SDS011;14425;56.136;40.360;2023-04-29T08:53:05;0.05;;;0.05;;
26486;SDS011;14425;56.136;40.360;2023-04-29T08:55:35;0.28;;;0.28;;
26486;SDS011;14425;56.136;40.360;2023-04-29T08:58:11;0.20;;;0.20;;
26486;SDS011;14425;56.136;40.360;2023-04-29T09:00:41;0.15;;;0.15;;
26486;SDS011;14425;56.136;40.360;2023-04-29T09:03:13;0.95;;;0.32;;
26486;SDS011;14425;56.136;40.360;2023-04-29T09:05:45;0.40;;;0.30;;
26486;SDS011;14425;56.136;40.360;2023-04-29T09:10:42;0.88;;;0.20;;
26486;SDS011;14425;56.136;40.360;2023-04-29T09:13:08;0.43;;;0.28;;
26486;SDS011;14425;56.136;40.360;2023-04-29T09:15:37;0.38;;;0.30;;
26486;SDS011;14425;56.136;40.360;2023-04-29T09:18:04;0.30;;;0.30;;
26486;SDS011;14425;56.136;40.360;2023-04-29T09:20:30;0.22;;;0.15;;
26486;SDS011;14425;56.136;40.360;2023-04-29T09:23:00;0.25;;;0.20;;
26486;SDS011;14425;56.136;40.360;2023-04-29T09:25:27;0.10;;;0.10;;
26486;SDS011;14425;56.136;40.360;2023-04-29T09:27:54;0.38;;;0.30;;
26486;SDS011;14425;56.136;40.360;2023-04-29T09:30:20;1.15;;;0.70;;
26486;SDS011;14425;56.136;40.360;2023-04-29T09:33:02;1.00;;;0.88;;
26486;SDS011;14425;56.136;40.360;2023-04-29T09:35:30;1.00;;;0.70;;
26486;SDS011;14425;56.136;40.360;2023-04-29T09:38:09;1.58;;;0.85;;
26486;SDS011;14425;56.136;40.360;2023-04-29T09:40:36;4.30;;;2.63;;
26486;SDS011;14425;56.136;40.360;2023-04-29T09:43:02;11.55;;;7.30;;
26486;SDS011;14425;56.136;40.360;2023-04-29T09:45:37;1.40;;;1.00;;
26486;SDS011;14425;56.136;40.360;2023-04-29T09:48:08;1.38;;;1.08;;
26486;SDS011;14425;56.136;40.360;2023-04-29T09:50:35;1.27;;;0.90;;
26486;SDS011;14425;56.136;40.360;2023-04-29T09:53:01;1.38;;;0.85;;
26486;SDS011;14425;56.136;40.360;2023-04-29T09:55:28;1.48;;;0.47;;
26486;SDS011;14425;56.136;40.360;2023-04-29T09:57:54;0.50;;;0.40;;
26486;SDS011;14425;56.136;40.360;2023-04-29T10:00:20;1.42;;;1.33;;
26486;SDS011;14425;56.136;40.360;2023-04-29T10:02:46;0.60;;;0.57;;
26486;SDS011;14425;56.136;40.360;2023-04-29T10:05:13;1.65;;;1.08;;
26486;SDS011;14425;56.136;40.360;2023-04-29T10:07:39;0.70;;;0.50;;
26486;SDS011;14425;56.136;40.360;2023-04-29T10:10:06;2.67;;;0.90;;
26486;SDS011;14425;56.136;40.360;2023-04-29T10:12:33;1.02;;;0.73;;
26486;SDS011;14425;56.136;40.360;2023-04-29T10:15:03;3.13;;;0.85;;
26486;SDS011;14425;56.136;40.360;2023-04-29T10:20:05;0.70;;;0.40;;
26486;SDS011;14425;56.136;40.360;2023-04-29T10:22:44;0.75;;;0.75;;
26486;SDS011;14425;56.136;40.360;2023-04-29T10:25:12;2.42;;;0.50;;
26486;SDS011;14425;56.136;40.360;2023-04-29T10:27:46;0.90;;;0.52;;
26486;SDS011;14425;56.136;40.360;2023-04-29T10:30:16;0.50;;;0.40;;
26486;SDS011;14425;56.136;40.360;2023-04-29T10:32:43;0.70;;;0.68;;
26486;SDS011;14425;56.136;40.360;2023-04-29T10:35:11;1.10;;;0.60;;
26486;SDS011;14425;56.136;40.360;2023-04-29T10:37:39;0.93;;;0.60;;
26486;SDS011;14425;56.136;40.360;2023-04-29T10:45:26;1.08;;;0.70;;
26486;SDS011;14425;56.136;40.360;2023-04-29T10:50:27;0.75;;;0.75;;
26486;SDS011;14425;56.136;40.360;2023-04-29T10:52:55;2.63;;;1.08;;
26486;SDS011;14425;56.136;40.360;2023-04-29T10:55:22;1.33;;;1.23;;
26486;SDS011;14425;56.136;40.360;2023-04-29T10:57:49;1.17;;;0.95;;
26486;SDS011;14425;56.136;40.360;2023-04-29T11:00:20;2.28;;;0.90;;
26486;SDS011;14425;56.136;40.360;2023-04-29T11:02:47;1.30;;;0.70;;
26486;SDS011;14425;56.136;40.360;2023-04-29T11:05:13;5.25;;;2.70;;
26486;SDS011;14425;56.136;40.360;2023-04-29T11:07:38;3.80;;;2.65;;
26486;SDS011;14425;56.136;40.360;2023-04-29T11:10:05;2.67;;;2.17;;
26486;SDS011;14425;56.136;40.360;2023-04-29T11:12:31;1.70;;;1.60;;
26486;SDS011;14425;56.136;40.360;2023-04-29T11:14:57;1.23;;;1.17;;
26486;SDS011;14425;56.136;40.360;2023-04-29T11:17:35;2.38;;;2.17;;
26486;SDS011;14425;56.136;40.360;2023-04-29T11:20:02;1.50;;;1.38;;
26486;SDS011;14425;56.136;40.360;2023-04-29T11:22:30;1.52;;;1.42;;
26486;SDS011;14425;56.136;40.360;2023-04-29T11:24:59;2.00;;;1.63;;
26486;SDS011;14425;56.136;40.360;2023-04-29T11:27:36;3.25;;;0.95;;
26486;SDS011;14425;56.136;40.360;2023-04-29T11:30:07;3.33;;;1.55;;
26486;SDS011;14425;56.136;40.360;2023-04-29T11:32:37;3.35;;;1.38;;
26486;SDS011;14425;56.136;40.360;2023-04-29T11:35:10;1.40;;;1.27;;
26486;SDS011;14425;56.136;40.360;2023-04-29T11:37:37;1.70;;;1.30;;
26486;SDS011;14425;56.136;40.360;2023-04-29T11:40:04;2.17;;;1.30;;
26486;SDS011;14425;56.136;40.360;2023-04-29T11:42:35;2.10;;;1.70;;
26486;SDS011;14425;56.136;40.360;2023-04-29T11:45:13;1.40;;;1.30;;
26486;SDS011;14425;56.136;40.360;2023-04-29T11:47:42;3.58;;;2.33;;
26486;SDS011;14425;56.136;40.360;2023-04-29T11:50:09;2.03;;;1.40;;
26486;SDS011;14425;56.136;40.360;2023-04-29T11:52:36;1.80;;;1.27;;
26486;SDS011;14425;56.136;40.360;2023-04-29T11:55:08;2.15;;;1.40;;
26486;SDS011;14425;56.136;40.360;2023-04-29T11:57:35;3.38;;;1.13;;
26486;SDS011;14425;56.136;40.360;2023-04-29T12:00:02;2.08;;;1.50;;
26486;SDS011;14425;56.136;40.360;2023-04-29T12:02:30;2.85;;;1.95;;
26486;SDS011;14425;56.136;40.360;2023-04-29T12:05:04;6.10;;;2.20;;
26486;SDS011;14425;56.136;40.360;2023-04-29T12:07:31;12.77;;;6.20;;
26486;SDS011;14425;56.136;40.360;2023-04-29T12:09:57;4.88;;;2.65;;
26486;SDS011;14425;56.136;40.360;2023-04-29T12:12:23;3.63;;;2.28;;
26486;SDS011;14425;56.136;40.360;2023-04-29T12:14:49;2.60;;;1.90;;
26486;SDS011;14425;56.136;40.360;2023-04-29T12:17:15;5.45;;;2.28;;
26486;SDS011;14425;56.136;40.360;2023-04-29T12:19:42;9.45;;;4.32;;
26486;SDS011;14425;56.136;40.360;2023-04-29T12:22:08;3.88;;;2.00;;
26486;SDS011;14425;56.136;40.360;2023-04-29T12:24:35;4.47;;;1.77;;
26486;SDS011;14425;56.136;40.360;2023-04-29T12:27:02;3.88;;;1.75;;
26486;SDS011;14425;56.136;40.360;2023-04-29T12:29:30;1.50;;;1.30;;
26486;SDS011;14425;56.136;40.360;2023-04-29T12:31:57;3.25;;;1.55;;
26486;SDS011;14425;56.136;40.360;2023-04-29T12:34:29;2.10;;;1.80;;
26486;SDS011;14425;56.136;40.360;2023-04-29T12:37:00;1.98;;;1.33;;
26486;SDS011;14425;56.136;40.360;2023-04-29T12:39:26;8.63;;;4.05;;
26486;SDS011;14425;56.136;40.360;2023-04-29T12:41:59;3.17;;;2.63;;
26486;SDS011;14425;56.136;40.360;2023-04-29T12:44:37;2.33;;;1.60;;
26486;SDS011;14425;56.136;40.360;2023-04-29T12:47:09;4.85;;;1.90;;
26486;SDS011;14425;56.136;40.360;2023-04-29T12:49:35;4.85;;;2.33;;
26486;SDS011;14425;56.136;40.360;2023-04-29T12:52:02;9.82;;;5.22;;
26486;SDS011;14425;56.136;40.360;2023-04-29T12:54:28;3.63;;;2.25;;
26486;SDS011;14425;56.136;40.360;2023-04-29T12:56:54;3.67;;;2.38;;
26486;SDS011;14425;56.136;40.360;2023-04-29T12:59:19;6.97;;;3.25;;
26486;SDS011;14425;56.136;40.360;2023-04-29T13:01:45;2.75;;;1.90;;
26486;SDS011;14425;56.136;40.360;2023-04-29T13:04:10;2.42;;;1.75;;
26486;SDS011;14425;56.136;40.360;2023-04-29T13:06:36;6.10;;;2.78;;
26486;SDS011;14425;56.136;40.360;2023-04-29T13:09:06;6.32;;;2.20;;
26486;SDS011;14425;56.136;40.360;2023-04-29T13:11:38;4.53;;;3.63;;
26486;SDS011;14425;56.136;40.360;2023-04-29T13:14:04;5.32;;;2.92;;
26486;SDS011;14425;56.136;40.360;2023-04-29T13:16:33;5.15;;;2.25;;
26486;SDS011;14425;56.136;40.360;2023-04-29T13:18:59;5.55;;;2.25;;
26486;SDS011;14425;56.136;40.360;2023-04-29T13:21:25;3.17;;;2.20;;
26486;SDS011;14425;56.136;40.360;2023-04-29T13:23:52;2.40;;;2.20;;
26486;SDS011;14425;56.136;40.360;2023-04-29T13:26:18;6.97;;;3.45;;
26486;SDS011;14425;56.136;40.360;2023-04-29T13:28:43;6.20;;;3.80;;
26486;SDS011;14425;56.136;40.360;2023-04-29T13:31:09;5.60;;;2.70;;
26486;SDS011;14425;56.136;40.360;2023-04-29T13:33:34;2.25;;;2.05;;
26486;SDS011;14425;56.136;40.360;2023-04-29T13:36:00;4.18;;;2.83;;
26486;SDS011;14425;56.136;40.360;2023-04-29T13:38:26;2.35;;;2.05;;
26486;SDS011;14425;56.136;40.360;2023-04-29T13:40:52;5.10;;;2.15;;
26486;SDS011;14425;56.136;40.360;2023-04-29T13:43:17;3.50;;;3.00;;
26486;SDS011;14425;56.136;40.360;2023-04-29T13:45:43;4.93;;;2.30;;
26486;SDS011;14425;56.136;40.360;2023-04-29T13:48:08;3.15;;;2.17;;
26486;SDS011;14425;56.136;40.360;2023-04-29T13:50:34;2.55;;;2.05;;
26486;SDS011;14425;56.136;40.360;2023-04-29T13:53:00;4.38;;;2.20;;
26486;SDS011;14425;56.136;40.360;2023-04-29T13:55:26;3.40;;;2.95;;
26486;SDS011;14425;56.136;40.360;2023-04-29T13:57:52;2.95;;;2.65;;
26486;SDS011;14425;56.136;40.360;2023-04-29T14:00:18;2.40;;;2.13;;
26486;SDS011;14425;56.136;40.360;2023-04-29T14:02:43;5.10;;;3.05;;
26486;SDS011;14425;56.136;40.360;2023-04-29T14:05:09;2.45;;;2.25;;
26486;SDS011;14425;56.136;40.360;2023-04-29T14:07:35;3.17;;;2.53;;
26486;SDS011;14425;56.136;40.360;2023-04-29T14:10:00;4.05;;;3.17;;
26486;SDS011;14425;56.136;40.360;2023-04-29T14:12:26;3.13;;;2.75;;
26486;SDS011;14425;56.136;40.360;2023-04-29T14:14:52;3.72;;;2.30;;
26486;SDS011;14425;56.136;40.360;2023-04-29T14:17:17;5.03;;;2.53;;
26486;SDS011;14425;56.136;40.360;2023-04-29T14:19:43;2.97;;;2.60;;
26486;SDS011;14425;56.136;40.360;2023-04-29T14:22:08;4.88;;;2.47;;
26486;SDS011;14425;56.136;40.360;2023-04-29T14:24:34;3.92;;;2.20;;
26486;SDS011;14425;56.136;40.360;2023-04-29T14:26:59;3.50;;;2.47;;
26486;SDS011;14425;56.136;40.360;2023-04-29T14:29:26;2.58;;;2.08;;
26486;SDS011;14425;56.136;40.360;2023-04-29T14:31:52;4.15;;;2.25;;
26486;SDS011;14425;56.136;40.360;2023-04-29T14:34:17;2.35;;;2.15;;
26486;SDS011;14425;56.136;40.360;2023-04-29T14:36:44;3.03;;;1.85;;
26486;SDS011;14425;56.136;40.360;2023-04-29T14:39:10;3.25;;;2.47;;
26486;SDS011;14425;56.136;40.360;2023-04-29T14:41:37;6.05;;;2.25;;
26486;SDS011;14425;56.136;40.360;2023-04-29T14:44:02;4.03;;;2.83;;
26486;SDS011;14425;56.136;40.360;2023-04-29T14:46:28;6.47;;;4.15;;
26486;SDS011;14425;56.136;40.360;2023-04-29T14:48:55;8.23;;;4.47;;
26486;SDS011;14425;56.136;40.360;2023-04-29T14:51:21;3.03;;;1.73;;
26486;SDS011;14425;56.136;40.360;2023-04-29T14:53:46;5.15;;;3.60;;
26486;SDS011;14425;56.136;40.360;2023-04-29T14:56:12;3.30;;;2.97;;
26486;SDS011;14425;56.136;40.360;2023-04-29T14:58:37;2.92;;;2.70;;
26486;SDS011;14425;56.136;40.360;2023-04-29T15:01:03;4.30;;;2.70;;